Flight Track Log - Related Links

Times and Time Zones

All times are in EDT time to prevent confusion due to time zone crossing. See the N738NR flight status page for this flight to view local times or setup timezone preferences in your user account.

Time Position Orientation Groundspeed Altitude Reporting Facility
EDT Latitude Longitude Course Direction KTS MPH feet Rate Location/Type
Mon 02:31:52 PM 35.8644 -78.8139 35° Northeast 172 198 1,700  Level Washington Center
Mon 02:33:00 PM 35.9616 -78.7241 31° Northeast  Level Estimated
Mon 02:33:50 PM 35.8908 -78.9200 31° Northeast 227 261 8,100  Level Washington Center
Mon 02:34:05 PM 35.9117 -78.9156 10° North 250 288 8,700 2,053 Climbing Washington Center
Mon 02:35:00 PM 36.1996 -78.4671 35° Northeast  Level FlightAware Approximate
Mon 02:35:06 PM 35.9672 -78.8667 35° Northeast 263 303 10,700  Level Washington Center
Mon 02:36:00 PM 36.2829 -78.3837 39° Northeast  Level FlightAware Approximate
Mon 02:36:04 PM 36.0300 -78.7844 47° Northeast 291 335 12,500  Level Washington Center
Mon 02:37:00 PM 36.3724 -78.3117 35° Northeast  Level FlightAware Approximate
Mon 02:37:05 PM 36.0992 -78.6975 45° Northeast 320 368 14,500  Level Washington Center
Mon 02:38:06 PM 36.1703 -78.6075 46° Northeast 360 414 16,700 1,983 Climbing Washington Center
Mon 02:39:06 PM 36.2478 -78.5153 44° Northeast 369 425 18,500 1,881 Climbing Washington Center
Mon 02:40:04 PM 36.3272 -78.4203 44° Northeast 374 430 20,400 1,916 Climbing Washington Center
Mon 02:41:05 PM 36.4067 -78.3225 45° Northeast 385 443 22,300 1,800 Climbing Washington Center
Mon 02:42:04 PM 36.4925 -78.2169 45° Northeast 405 466 24,000 1,966 Climbing Washington Center
Mon 02:43:04 PM 36.5819 -78.1242 40° Northeast 410 472 26,200 1,785 Climbing Washington Center
Mon 02:44:05 PM 36.6756 -78.0367 37° Northeast 416 479 27,600 1,279 Climbing Washington Center
Mon 02:45:06 PM 36.7756 -77.9439 37° Northeast 426 490 28,800 706 Climbing Washington Center
Mon 02:46:04 PM 36.8242 -77.8000 67° East 425 489 29,000 605 Climbing Washington Center
Mon 02:47:05 PM 36.9014 -77.6881 49° Northeast 450 518 30,000 984 Climbing Washington Center
Mon 02:48:06 PM 37.0133 -77.6050 31° Northeast 450 518 31,000 496 Climbing Washington Center
Mon 02:49:06 PM 37.1192 -77.5114 35° Northeast 462 532 31,000  Level Washington Center
Mon 02:50:04 PM 37.2250 -77.4150 36° Northeast 462 532 31,000  Level Washington Center
Mon 02:51:04 PM 37.3286 -77.3156 37° Northeast 462 532 31,000  Level Washington Center
Mon 02:52:05 PM 37.4428 -77.2083 37° Northeast 462 532 31,000  Level Washington Center
Mon 02:53:05 PM 37.5464 -77.1111 37° Northeast 467 537 31,000  Level Washington Center
Mon 02:54:06 PM 37.6475 -77.0133 37° Northeast 467 537 31,000  Level Washington Center
Mon 02:55:04 PM 37.7489 -76.9181 37° Northeast 462 532 31,000  Level Washington Center
Mon 02:56:05 PM 37.8500 -76.8225 37° Northeast 457 526 31,000  Level Washington Center
Mon 02:57:07 PM 37.9489 -76.7267 37° Northeast 452 520 31,000  Level Washington Center
Mon 02:58:04 PM 38.0500 -76.6281 38° Northeast 452 520 31,000  Level Washington Center
Mon 02:59:04 PM 38.1486 -76.5344 37° Northeast 442 509 31,000  Level Washington Center
Mon 03:00:05 PM 38.2472 -76.4378 38° Northeast 442 509 31,000  Level Washington Center
Mon 03:01:05 PM 38.3458 -76.3461 36° Northeast 442 509 31,000  Level Washington Center
Mon 03:02:06 PM 38.4486 -76.2517 36° Northeast 442 509 31,000  Level Washington Center
Mon 03:03:06 PM 38.5472 -76.1572 37° Northeast 442 509 31,000 -500 Level Washington Center
Mon 03:04:06 PM 38.6456 -76.0675 35° Northeast 453 521 30,000 -1,119 Descending Washington Center
Mon 03:05:04 PM 38.7522 -75.9697 36° Northeast 464 534 28,800 -1,373 Descending Washington Center
Mon 03:06:04 PM 38.8589 -75.8689 36° Northeast 470 541 27,300 -885 Descending Washington Center
Mon 03:07:06 PM 38.9675 -75.7678 36° Northeast 475 547 27,000 -148 Descending Washington Center
Mon 03:08:06 PM 39.0739 -75.6692 36° Northeast 475 547 27,000  Level Washington Center
Mon 03:09:04 PM 39.1781 -75.5703 36° Northeast 464 534 27,000 -454 Level Washington Center
Mon 03:10:05 PM 39.2842 -75.4708 36° Northeast 470 541 26,100 -1,366 Descending Washington Center
Mon 03:11:07 PM 39.3925 -75.3742 35° Northeast 470 541 24,200 -1,866 Descending Washington Center
Mon 03:12:04 PM 39.4964 -75.2822 34° Northeast 464 534 22,400 -1,795 Descending Washington Center
Mon 03:13:04 PM 39.5942 -75.1931 35° Northeast 447 514 20,700 -1,686 Descending Washington Center
Mon 03:14:05 PM 39.6939 -75.0981 36° Northeast 418 481 19,000 -1,426 Descending Washington Center
Mon 03:15:06 PM 39.7767 -75.0272 33° Northeast 398 458 17,800 -1,361 Descending Washington Center
Mon 03:16:04 PM 39.8661 -74.9508 33° Northeast 368 423 16,300 -1,758 Descending Washington Center
Mon 03:17:43 PM 39.9833 -74.8167 41° Northeast 317 365 13,200 -2,038 Descending New York TRACON
Mon 03:18:43 PM 40.0333 -74.7333 52° Northeast 305 351 10,900 -1,632 Descending New York TRACON
Mon 03:19:37 PM 40.0833 -74.6667 46° Northeast 298 343 10,100 -450 Descending New York TRACON
Mon 03:20:43 PM 40.1500 -74.5833 44° Northeast 302 348 10,000  Descending New York TRACON
Mon 03:21:43 PM 40.2000 -74.5000 52° Northeast 298 343 10,100 -350 Climbing New York TRACON
Mon 03:22:43 PM 40.2667 -74.4167 44° Northeast 296 341 9,300 -1,095 Descending New York TRACON
Mon 03:23:49 PM 40.3167 -74.3500 45° Northeast 283 326 7,800 -1,095 Descending New York TRACON
Mon 03:24:49 PM 40.3833 -74.2833 37° Northeast 275 316 7,000 -400 Descending New York TRACON
Mon 03:25:49 PM 40.4333 -74.2000 52° Northeast 286 329 7,000 -300 Level New York TRACON
Mon 03:26:49 PM 40.4833 -74.1333 45° Northeast 276 318 6,400 -1,050 Descending New York TRACON
Mon 03:27:49 PM 40.5500 -74.0833 30° Northeast 288 331 4,900 -1,211 Descending New York TRACON
Mon 03:28:43 PM 40.6167 -74.0667 11° North 287 330 4,100 -450 Descending New York TRACON
Mon 03:29:49 PM 40.7000 -74.0500 North 279 321 4,000 -50 Descending New York TRACON
Mon 03:30:43 PM 40.7667 -74.0167 21° North 279 321 4,000  Level New York TRACON
Mon 03:31:43 PM 40.8333 -73.9667 30° Northeast 278 320 4,000  Level New York TRACON
Mon 03:32:49 PM 40.9167 -73.9333 17° North 273 314 4,000  Level New York TRACON
Mon 03:33:49 PM 40.9667 -73.8667 45° Northeast 203 234 4,000  Level New York TRACON
Mon 03:34:49 PM 40.9667 -73.8167 90° East 179 206 4,000 -600 Level New York TRACON
Mon 03:35:49 PM 40.9333 -73.7833 143° Southeast 175 201 2,800 -1,200 Descending New York TRACON

Login

Don't have an account? Register now (free) for customized features, flight alerts, and more!